Stations météo

réclame
Mon MeteoGroup
Soederarm, Suède (2493): Température de l'air & dewpoint: 01.08.2020 17:00:00 - 07.08.2020 17:00:00 (CEST)Soederarm, Suède (2493): Vitesse du vent & gusts: 01.08.2020 17:00:00 - 07.08.2020 17:00:00 (CEST)Soederarm, Suède (2493): Direction du vent: 01.08.2020 17:00:00 - 07.08.2020 17:00:00 (CEST)Soederarm, Suède (2493): visibility: 01.08.2020 17:00:00 - 07.08.2020 17:00:00 (CEST)
Date & Time tt [°C] td [°C] ff [km/h] ff [knt] fx [km/h] fx [knt] dd vv [km]
07.08.2020 17:00:00 20,0 16,0 25 13 31 17 S 8
07.08.2020 16:00:00 20,9 15,9 21 11 26 14 S 7
07.08.2020 15:00:00 20,8 16,4 18 10 24 13 S 8
07.08.2020 14:00:00 21,3 16,3 14 7 20 11 S 12
07.08.2020 13:00:00 22,0 16,5 14 7 24 13 S 13
07.08.2020 12:00:00 21,1 16,3 21 12 23 13 SSW 2,4
07.08.2020 11:00:00 21,3 16,3 16 8 22 12 S 10
07.08.2020 10:00:00 21,0 16,2 10 6 14 8 S 8
07.08.2020 09:00:00 21,5 16,7 4 2 9 5 SSW 9
07.08.2020 08:00:00 19,6 16,8 9 5 11 6 WSW -
07.08.2020 07:00:00 18,3 16,8 10 5 16 9 WSW -
07.08.2020 06:00:00 17,5 16,7 15 8 17 9 WSW 6
07.08.2020 05:00:00 17,5 16,7 16 8 16 9 WSW 3,4
07.08.2020 04:00:00 17,3 16,5 13 7 16 9 WSW 3,2
07.08.2020 03:00:00 17,5 16,4 11 6 15 8 WSW 7
07.08.2020 02:00:00 18,1 16,4 13 7 19 10 WSW 4,0
07.08.2020 01:00:00 18,3 16,5 18 10 22 12 WSW 1,5
07.08.2020 00:00:00 18,4 16,4 18 10 21 11 WSW 1,9
06.08.2020 23:00:00 18,4 16,6 20 11 24 13 SW -
06.08.2020 22:00:00 18,5 16,3 21 11 24 13 SW -
06.08.2020 21:00:00 19,5 16,2 18 10 29 15 WSW 47
06.08.2020 20:00:00 20,1 15,9 27 15 34 19 W 48
06.08.2020 19:00:00 20,6 16,2 22 12 28 15 WSW 47
06.08.2020 18:00:00 20,3 15,9 26 14 31 17 WSW 32
06.08.2020 17:00:00 20,6 15,8 21 11 25 14 SW 38
06.08.2020 16:00:00 20,3 16,1 21 11 28 15 SW 36
06.08.2020 15:00:00 20,3 16,3 21 12 27 14 SW 26
06.08.2020 14:00:00 19,7 16,2 23 12 27 15 SW 27
06.08.2020 13:00:00 19,2 15,7 23 13 29 15 WSW 41
06.08.2020 12:00:00 18,7 16,1 21 11 26 14 WSW 39
06.08.2020 11:00:00 18,4 15,6 21 11 27 15 WSW 44
06.08.2020 10:00:00 18,2 15,5 25 13 36 19 WSW 38
06.08.2020 09:00:00 18,0 15,3 22 12 31 17 WSW 36
06.08.2020 08:00:00 17,3 14,9 22 12 29 16 WSW 45
06.08.2020 07:00:00 17,5 14,2 23 12 26 14 WSW 45
06.08.2020 06:00:00 17,3 14,4 21 11 30 16 WSW 50
06.08.2020 05:00:00 17,3 14,2 24 13 31 17 WSW 50
06.08.2020 04:00:00 17,3 14,2 27 15 34 19 SW 50
06.08.2020 03:00:00 17,3 14,0 26 14 35 19 SW 50
06.08.2020 02:00:00 17,0 14,3 28 15 34 19 SSW 49
06.08.2020 01:00:00 17,3 13,2 24 13 32 17 SSW 50
06.08.2020 00:00:00 17,3 12,8 26 14 37 20 SW 50
05.08.2020 23:00:00 17,0 13,3 29 16 35 19 SW 50
05.08.2020 22:00:00 16,9 13,8 28 15 37 20 SW 42
05.08.2020 21:00:00 17,0 13,3 31 17 39 21 SW 50
05.08.2020 20:00:00 17,2 12,9 35 19 43 23 SW 49
05.08.2020 19:00:00 17,1 12,6 38 21 48 26 SW 49
05.08.2020 18:00:00 17,3 12,6 41 22 47 25 SSW 49
05.08.2020 17:00:00 17,9 12,1 39 21 45 25 SSW 39
05.08.2020 16:00:00 18,2 12,2 34 19 48 26 SW 33
05.08.2020 15:00:00 17,2 12,1 36 19 45 25 SW 40
05.08.2020 14:00:00 18,3 9,6 28 15 41 22 SW 41
05.08.2020 13:00:00 17,5 7,8 35 19 46 25 WSW 31
05.08.2020 12:00:00 17,2 8,3 38 21 48 26 WSW 28
05.08.2020 11:00:00 16,7 8,1 38 20 45 24 WSW 36
05.08.2020 10:00:00 16,7 10,1 24 13 32 17 SW 38
05.08.2020 09:00:00 16,1 11,1 29 16 35 19 WSW 32
05.08.2020 08:00:00 15,5 11,1 23 13 28 15 W 41
05.08.2020 07:00:00 14,9 10,9 22 12 28 15 W 42
05.08.2020 06:00:00 15,3 11,3 26 14 31 17 W 50
05.08.2020 05:00:00 15,7 11,1 26 14 34 18 W 25
05.08.2020 04:00:00 15,9 11,3 24 13 32 17 W 18
05.08.2020 03:00:00 16,0 12,0 24 13 28 15 W 24
05.08.2020 02:00:00 16,6 13,9 10 5 14 8 W 27
05.08.2020 01:00:00 16,5 14,5 9 5 12 7 SSW 15
05.08.2020 00:00:00 16,6 14,6 10 5 15 8 S 3,1
04.08.2020 23:00:00 16,8 13,9 11 6 16 9 SSE 7
04.08.2020 22:00:00 16,7 14,0 14 8 16 9 SE 1,0
04.08.2020 21:00:00 16,6 12,9 13 7 15 8 SSE -
04.08.2020 20:00:00 16,9 12,2 10 5 12 7 SE 1,3
04.08.2020 19:00:00 17,0 11,9 9 5 13 7 E 1,7
04.08.2020 18:00:00 17,3 11,8 11 6 14 8 E 1,9
04.08.2020 17:00:00 17,4 11,9 12 7 14 7 E 2,4
04.08.2020 16:00:00 17,3 11,6 12 6 15 8 E 2,1
04.08.2020 15:00:00 17,2 11,7 12 7 17 9 E 2,0
04.08.2020 14:00:00 17,2 12,3 14 8 16 9 E 1,7
04.08.2020 13:00:00 16,7 11,8 10 6 12 7 ENE 3,4
04.08.2020 12:00:00 17,0 11,9 7 4 9 5 E 3,7
04.08.2020 11:00:00 17,7 11,0 3 2 5 3 W 6
04.08.2020 10:00:00 16,9 11,4 3 2 10 6 W 6
04.08.2020 09:00:00 16,1 11,1 8 4 16 8 W 6
04.08.2020 08:00:00 15,5 10,9 12 7 18 10 W 7
04.08.2020 07:00:00 15,0 10,8 18 10 23 13 W 4,4
04.08.2020 06:00:00 14,9 11,3 19 11 29 15 W 5
04.08.2020 05:00:00 15,3 11,1 26 14 32 18 W 6
04.08.2020 04:00:00 16,2 11,4 28 15 33 18 W 4,9
04.08.2020 03:00:00 16,7 11,6 24 13 29 16 WSW 3,6
04.08.2020 02:00:00 16,9 12,0 19 10 27 15 WSW 3,2
04.08.2020 01:00:00 17,1 13,2 20 11 26 14 WSW 3,0
04.08.2020 00:00:00 17,1 13,8 20 11 26 14 WSW 2,4
03.08.2020 23:00:00 16,9 14,2 22 12 30 16 SW 4,7
03.08.2020 22:00:00 17,2 13,9 26 14 34 19 SW 21
03.08.2020 21:00:00 17,4 13,7 30 16 35 19 SW 47
03.08.2020 20:00:00 18,0 13,7 26 14 35 19 SW 40
03.08.2020 19:00:00 18,5 13,6 27 15 39 21 SW 35
03.08.2020 18:00:00 18,9 13,5 30 16 40 21 SW 41
03.08.2020 17:00:00 19,1 13,3 26 14 32 17 SW 39
03.08.2020 16:00:00 19,6 11,1 29 16 39 21 WSW 30
03.08.2020 15:00:00 19,0 11,1 31 17 41 22 WSW 26
03.08.2020 14:00:00 19,1 11,4 32 17 39 21 WSW 32
03.08.2020 13:00:00 18,5 10,6 35 19 45 24 WSW 31
03.08.2020 12:00:00 18,0 11,8 37 20 43 23 SW 40
03.08.2020 11:00:00 17,5 11,7 27 14 38 21 WSW 30
03.08.2020 10:00:00 16,8 12,1 31 17 39 21 WSW 29
03.08.2020 09:00:00 16,1 12,3 35 19 42 23 WSW 33
03.08.2020 08:00:00 15,9 12,6 32 18 40 21 W 33
03.08.2020 07:00:00 15,7 12,8 34 18 46 25 W 37
03.08.2020 06:00:00 15,6 12,7 36 19 43 23 W 33
03.08.2020 05:00:00 15,9 13,6 29 15 41 22 WSW 50
03.08.2020 04:00:00 16,5 13,6 27 14 38 21 W 50
03.08.2020 03:00:00 17,1 15,1 27 15 33 18 WSW 50
03.08.2020 02:00:00 17,1 16,0 34 18 37 20 WSW 25
03.08.2020 01:00:00 16,9 15,9 19 11 32 18 SW 19
03.08.2020 00:00:00 16,8 15,7 24 13 35 19 SW 23
02.08.2020 23:00:00 16,9 15,8 31 17 39 21 SW 23
02.08.2020 22:00:00 17,2 15,0 32 17 40 22 SSW 29
02.08.2020 21:00:00 17,1 14,6 24 13 32 17 S 17
02.08.2020 20:00:00 17,4 14,5 23 12 43 23 S 7
02.08.2020 19:00:00 17,6 14,9 32 17 44 24 SSW 5
02.08.2020 18:00:00 18,1 13,6 34 18 42 23 SSW 23
02.08.2020 17:00:00 18,1 13,8 32 18 40 21 SSW 33
02.08.2020 16:00:00 18,7 14,2 34 18 42 23 SSW 32
02.08.2020 15:00:00 19,9 14,3 34 19 39 21 SSW 29
02.08.2020 14:00:00 19,5 13,7 34 18 40 22 SSW 32
02.08.2020 13:00:00 20,1 14,9 32 18 38 21 SSW 33
02.08.2020 12:00:00 19,8 14,8 31 17 36 19 SW 34
02.08.2020 11:00:00 18,6 15,7 30 16 35 19 SSW 29
02.08.2020 10:00:00 17,9 16,1 29 16 36 19 SSW 24
02.08.2020 09:00:00 17,3 15,8 29 15 35 19 SSW 31
02.08.2020 08:00:00 17,1 15,6 31 17 36 19 SW 28
02.08.2020 07:00:00 16,7 15,6 27 15 31 17 SSW 28
02.08.2020 06:00:00 16,6 15,3 24 13 29 15 SSW 30
02.08.2020 05:00:00 16,4 14,9 24 13 31 17 SW 25
02.08.2020 04:00:00 16,4 14,8 26 14 30 16 SW 32
02.08.2020 03:00:00 16,4 14,9 24 13 30 16 SW 37
02.08.2020 02:00:00 16,4 15,1 27 14 31 17 SW 30
02.08.2020 01:00:00 16,4 15,3 26 14 31 17 SW 22
02.08.2020 00:00:00 16,5 15,7 26 14 31 17 SW 13
01.08.2020 23:00:00 16,5 15,5 24 13 29 15 SW 27
01.08.2020 22:00:00 16,6 15,5 23 12 27 15 SSW 19
01.08.2020 21:00:00 16,7 15,6 21 11 27 14 SSW 24
01.08.2020 20:00:00 17,0 15,2 24 13 28 15 SSW 35
01.08.2020 19:00:00 17,4 15,0 19 10 23 12 S 32
01.08.2020 18:00:00 17,9 14,8 15 8 19 10 S 31
01.08.2020 17:00:00 17,9 14,6 13 7 16 8 S 33

tt = Température de l'air
td = dewpoint
ff = Vitesse du vent
fx = gusts
dd = Direction du vent
vv = visibility

stations d'obs. à proximité